»·PEaware :: DAL576 KLAS-KSAN

DAL576 :: KLAS-KSAN

FLIGHT INFORMATION

Flight Status: Arrived
Operator:
Delta Air Lines
More flights by this operator :: More flights under this callsign
Pilot: Anonymous 8274 (8274)
Aircraft: BOEING 737-200
(B732)
More flights by this aircraft type
Origin: KLAS McCarran Intl
United States
Destination: KSAN San Diego Intl-Lindbergh
United States
More flights between these airports :: More routes between these airports
Route: MCCRN5 TNP BARET5
File this flight plan on PilotEdge
Remarks:
Altitude:
(Current/Filed)
32,000ft
Speed:
(Current/Filed)
460kts
Departed: 07-Jul-20 05:20 PM
Arrived: 07-Jul-20 06:06 PM
Distance/Time
Traveled:
225nm/0:46
Distance/Time
To Go:
Arrived

Flight Plot

Page will automatically refresh every two minutes.

Flight plan parsing failed; only flown route is shown


Map Options




Map Legend


Flown Route
Filed Route
Departure Airport
Arrival Airport
Navaid (VOR, NDB)
Fix

Horizontal Profiles

Position Reports

Time Latitude Longitude Heading Altitude Ground
Speed
07-Jul-20 16:53 36.079883 -115.139541 355 2077ft 0kts
07-Jul-20 16:54 36.079883 -115.139541 355 2077ft 0kts
07-Jul-20 16:55 36.079883 -115.139541 355 2077ft 0kts
07-Jul-20 16:56 36.079883 -115.139541 355 2077ft 0kts
07-Jul-20 16:57 36.079883 -115.139541 355 2077ft 0kts
07-Jul-20 16:58 36.079883 -115.139541 355 2077ft 0kts
07-Jul-20 16:59 36.079883 -115.139541 355 2077ft 0kts
07-Jul-20 17:00 36.079883 -115.139541 355 2077ft 0kts
07-Jul-20 17:01 36.079883 -115.139541 355 2077ft 0kts
07-Jul-20 17:02 36.079883 -115.139541 355 2077ft 0kts
07-Jul-20 17:03 36.079883 -115.139541 355 2077ft 0kts
07-Jul-20 17:04 36.079883 -115.139541 355 2077ft 0kts
07-Jul-20 17:05 36.079883 -115.139541 355 2077ft 0kts
07-Jul-20 17:06 36.079574 -115.139492 349 2077ft 2kts
07-Jul-20 17:07 36.079386 -115.138896 235 2077ft 2kts
07-Jul-20 17:08 36.079464 -115.138793 223 2076ft 0kts
07-Jul-20 17:09 36.079464 -115.138793 223 2076ft 0kts
07-Jul-20 17:10 36.079464 -115.138793 223 2076ft 0kts
07-Jul-20 17:11 36.079191 -115.139111 223 2077ft 0kts
07-Jul-20 17:12 36.079191 -115.139112 223 2077ft 0kts
07-Jul-20 17:13 36.078766 -115.139559 201 2079ft 4kts
07-Jul-20 17:14 36.078239 -115.136061 90 2071ft 27kts
07-Jul-20 17:15 36.078255 -115.123457 88 2042ft 26kts
07-Jul-20 17:16 36.077419 -115.121509 137 2039ft 0kts
07-Jul-20 17:17 36.077419 -115.121509 137 2039ft 0kts
07-Jul-20 17:18 36.076399 -115.121591 270 2039ft 0kts
07-Jul-20 17:19 36.076487 -115.150703 267 2269ft 152kts
07-Jul-20 17:21 36.079399 -115.206119 267 3575ft 178kts
07-Jul-20 17:22 36.050706 -115.256473 202 5337ft 215kts
07-Jul-20 17:23 35.986847 -115.258413 172 7449ft 263kts
07-Jul-20 17:24 35.910195 -115.243816 177 9872ft 288kts
07-Jul-20 17:25 35.825258 -115.237571 181 11698ft 327kts
07-Jul-20 17:26 35.730738 -115.235453 182 13923ft 346kts
07-Jul-20 17:27 35.631982 -115.228430 178 16179ft 355kts
07-Jul-20 17:28 35.531944 -115.214385 175 18088ft 367kts
07-Jul-20 17:29 35.426940 -115.198623 178 19475ft 385kts
07-Jul-20 17:30 35.318077 -115.188023 183 20987ft 392kts
07-Jul-20 17:31 35.206971 -115.188731 184 22509ft 396kts
07-Jul-20 17:32 35.096181 -115.192672 192 23936ft 393kts
07-Jul-20 17:33 34.991039 -115.229194 206 25099ft 390kts
07-Jul-20 17:34 34.894211 -115.282949 209 26080ft 393kts
07-Jul-20 17:35 34.790136 -115.331397 196 27021ft 406kts
07-Jul-20 17:36 34.679202 -115.362811 200 27951ft 405kts
07-Jul-20 17:36 34.590123 -115.399178 204 28680ft 404kts
07-Jul-20 17:38 34.466247 -115.452122 204 29626ft 404kts
07-Jul-20 17:39 34.362425 -115.502441 207 30541ft 397kts
07-Jul-20 17:39 34.282269 -115.554757 223 31181ft 385kts
07-Jul-20 17:40 34.207934 -115.646060 233 31807ft 379kts
07-Jul-20 17:41 34.138677 -115.743336 227 31822ft 397kts
07-Jul-20 17:42 34.030757 -115.790501 196 31798ft 430kts
07-Jul-20 17:43 33.914693 -115.827316 201 31800ft 430kts
07-Jul-20 17:44 33.799732 -115.867951 196 31798ft 438kts
07-Jul-20 17:45 33.680761 -115.892997 195 29730ft 429kts
07-Jul-20 17:46 33.566061 -115.923334 197 27382ft 417kts
07-Jul-20 17:47 33.456638 -115.960197 218 25047ft 398kts
07-Jul-20 17:48 33.395845 -116.062969 246 23842ft 365kts
07-Jul-20 17:49 33.355890 -116.174200 241 22790ft 366kts
07-Jul-20 17:50 33.279545 -116.256466 224 20513ft 369kts
07-Jul-20 17:51 33.204697 -116.340375 225 18389ft 363kts
07-Jul-20 17:52 33.132157 -116.423456 225 16369ft 356kts
07-Jul-20 17:53 33.061948 -116.505657 225 14340ft 349kts
07-Jul-20 17:54 32.996013 -116.581489 222 12056ft 317kts
07-Jul-20 17:55 32.930323 -116.646450 207 11985ft 290kts
07-Jul-20 17:56 32.853709 -116.659110 183 11998ft 284kts
07-Jul-20 17:57 32.777194 -116.671067 212 10609ft 271kts
07-Jul-20 17:58 32.730904 -116.740770 238 9075ft 269kts
07-Jul-20 17:59 32.694017 -116.820486 243 7262ft 277kts
07-Jul-20 18:00 32.661694 -116.900708 251 5402ft 260kts
07-Jul-20 18:01 32.684522 -116.976566 288 3881ft 239kts
07-Jul-20 18:02 32.699196 -117.052988 287 2483ft 237kts
07-Jul-20 18:03 32.717434 -117.122564 284 1393ft 191kts
07-Jul-20 18:04 32.728939 -117.170098 283 276ft 135kts
07-Jul-20 18:05 32.736353 -117.201189 285 23ft 20kts

Navigation Log

Ident Type
Flight plan parsing failed, navigation log unavailable